Enter the Airport ICAO Code

Search by Airport or City

Current Weather

GCFV | Fuerteventura Airport

Fuerteventura, Canary Islands, Spain

Last Update 16 Minutes Ago

Partly Cloudy Sky

Temperature of 15 ºC

Moderate Winds from North

Temperature

15 ºC

Dew Point Temperature

10 ºC

Relative Humidity

72.14 %

Wind Direction

North (340º, Without Significant Variations)

Wind Velocity

20 km/h (11 kt)

Gusts

None

Visibility

Greater than 10 Kilometers

Sea Level Pressure

1022 hPa (Hectopascals)

Layers of Clouds

5% to 30% of Sky Covered from 1006 mts (3300 ft) Above Ground Level.

30% to 60% of Sky Covered from 1433 mts (4700 ft) Above Ground Level.

METAR GCFV 270400Z AUTO 34011KT 9999 FEW033 SCT047 15/10 Q1022

Weather Forecast

GCFV | Fuerteventura Airport

Fuerteventura, Canary Islands, Spain

Forecast valid for the next 23 Hours

From now on it is expected:

Partly Cloudy Sky

Light to Moderate Winds from North

In 5 to 7 hours it is expected the begining of:

Moderate Winds from NorthEast

In 11 to 13 hours it is expected the begining of:

Moderate Winds from NorthWest

In 16 hours it is expected the begining of 7 hours with intermittent periods of:

Rain

Maximum Temperature

21 ºC in 10 Hours

Minimum Temperature

14 ºC in 1 Hour

TAF GCFV 270200Z 2703/2803 34008KT 9999 SCT030 TX21/2714Z TN14/2705Z BECMG 2709/2711 04011KT BECMG 2715/2717 33013KT PROB30 TEMPO 2720/2803 RA